Latest Weather Observations for Noona

IDN60801

Issued at 10:12 am EDT Wednesday 16 January 2019 (issued every 10 minutes, with the page automatically refreshed every 10 minutes)

About weather observations | Map of weather stations | Latest weather observations for NSW | Other Formats
Station Details ID: 048250 Name: NOONA AWS Lat: -31.73 Lon: 144.93 Height: 179.0 m
Data from the previous 72 hours. | See also: Recent months at Noona
Date/Time
EDT
Temp
°C
App
Temp
°C
Dew
Point
°C
Rel
Hum
%
Delta-T
°C
Wind Press
QNH
hPa
Press
MSL
hPa
Rain since
9am
mm
Dir  Spd
km/h
Gust
km/h
Spd
kts
Gust
kts
16/10:00am 40.8 - 5.8 12 19.7 - - - - - - - 0.0
16/09:30am 39.7 - 6.1 13 18.9 - - - - - - - 0.0
16/09:00am 38.5 - 7.3 15 17.7 - - - - - - - 1.0
16/08:30am 37.1 - 8.0 17 16.6 - - - - - - - 1.0
16/08:00am 35.0 - 8.7 20 15.0 - - - - - - - 1.0
16/07:30am 34.4 - 8.9 21 14.6 - - - - - - - 1.0
16/07:00am 33.1 - 8.5 22 13.9 - - - - - - - 1.0
16/06:30am 33.0 - 8.5 22 13.8 - - - - - - - 1.0
16/06:00am 33.4 - 8.8 22 14.0 - - - - - - - 1.0
16/05:30am 33.3 - 8.7 22 13.9 - - - - - - - 1.0
16/05:00am 33.3 - 8.0 21 14.2 - - - - - - - 1.0
16/04:30am 34.1 - 8.0 20 14.7 - - - - - - - 1.0
16/04:00am 34.7 - 8.4 20 14.9 - - - - - - - 1.0
16/03:30am 35.0 - 7.9 19 15.3 - - - - - - - 1.0
16/03:00am 35.6 - 8.4 19 15.5 - - - - - - - 1.0
16/02:30am 36.6 - 7.6 17 16.4 - - - - - - - 1.0
16/02:00am 37.1 - 8.0 17 16.6 - - - - - - - 1.0
16/01:30am 36.2 - 8.1 18 16.0 - - - - - - - 1.0
16/01:00am 37.1 - 7.1 16 16.9 - - - - - - - 1.0
16/12:30am 37.0 - 7.9 17 16.6 - - - - - - - 1.0
16/12:00am 37.0 - 7.9 17 16.6 - - - - - - - 1.0
 
Date/Time
EDT
Temp
°C
App
Temp
°C
Dew
Point
°C
Rel
Hum
%
Delta-T
°C
Wind Press
QNH
hPa
Press
MSL
hPa
Rain since
9am
mm
Dir  Spd
km/h
Gust
km/h
Spd
kts
Gust
kts
15/11:30pm 37.0 - 7.9 17 16.6 - - - - - - - 1.0
15/11:00pm 37.6 - 6.6 15 17.4 - - - - - - - 1.0
15/10:30pm 38.0 - 6.9 15 17.5 - - - - - - - 1.0
15/10:00pm 38.6 - 6.3 14 18.1 - - - - - - - 1.0
15/09:30pm 39.9 - 6.3 13 18.9 - - - - - - - 1.0
15/09:00pm 39.4 - 7.0 14 18.4 - - - - - - - 1.0
15/08:30pm 38.5 - 10.0 18 16.8 - - - - - - - 1.0
15/08:00pm 38.6 - 10.0 18 16.9 - - - - - - - 1.0
15/07:30pm 39.2 - 9.7 17 17.4 - - - - - - - 1.0
15/07:00pm 36.3 - 11.9 23 14.7 - - - - - - - 1.0
15/06:39pm 38.0 - 12.6 22 15.5 - - - - - - - 0.0
15/06:30pm 43.0 - 4.9 10 21.3 - - - - - - - 0.0
15/06:00pm 43.2 - 3.5 9 21.8 - - - - - - - 0.0
15/05:30pm 44.0 - 4.1 9 22.2 - - - - - - - 0.0
15/05:00pm 43.5 - 5.2 10 21.6 - - - - - - - 0.0
15/04:30pm 44.2 - 4.2 9 22.3 - - - - - - - 0.0
15/04:00pm 44.1 - 4.2 9 22.2 - - - - - - - 0.0
15/03:30pm 43.0 - 4.9 10 21.3 - - - - - - - 0.0
15/03:00pm 42.5 - 4.5 10 21.1 - - - - - - - 0.0
15/02:30pm 42.9 - 4.8 10 21.3 - - - - - - - 0.0
15/02:00pm 42.1 - 4.2 10 20.9 - - - - - - - 0.0
15/01:30pm 41.5 - 3.7 10 20.7 - - - - - - - 0.0
15/01:00pm 41.5 - 3.7 10 20.7 - - - - - - - 0.0
15/12:30pm 41.2 - 3.5 10 20.5 - - - - - - - 0.0
15/12:00pm 40.6 - 4.4 11 19.9 - - - - - - - 0.0
15/11:30am 40.5 - 4.3 11 19.9 - - - - - - - 0.0
15/11:00am 40.3 - 4.2 11 19.8 - - - - - - - 0.0
15/10:30am 38.8 - 4.3 12 18.8 - - - - - - - 0.0
15/10:00am 37.6 - 4.5 13 17.9 - - - - - - - 0.0
15/09:30am 36.6 - 4.8 14 17.2 - - - - - - - 0.0
15/09:00am 35.8 - 5.1 15 16.6 - - - - - - - 0.0
15/08:30am 34.4 - 4.0 15 16.1 - - - - - - - 0.0
15/08:00am 32.7 - 4.5 17 14.9 - - - - - - - 0.0
15/07:30am 30.6 - 4.4 19 13.6 - - - - - - - 0.0
15/07:00am 30.4 - 4.2 19 13.6 - - - - - - - 0.0
15/06:30am 31.1 - 4.0 18 14.1 - - - - - - - 0.0
15/06:00am 31.5 - 4.3 18 14.2 - - - - - - - 0.0
15/05:30am 31.9 - 4.6 18 14.4 - - - - - - - 0.0
15/05:00am 31.9 - 5.4 19 14.1 - - - - - - - 0.0
15/04:30am 32.4 - 6.6 20 14.1 - - - - - - - 0.0
15/04:00am 32.4 - 7.3 21 13.8 - - - - - - - 0.0
15/03:30am 32.7 - 8.9 23 13.5 - - - - - - - 0.0
15/03:00am 33.3 - 8.7 22 13.9 - - - - - - - 0.0
15/02:30am 34.2 - 8.8 21 14.5 - - - - - - - 0.0
15/02:00am 34.7 - 9.2 21 14.7 - - - - - - - 0.0
15/01:30am 34.4 - 8.9 21 14.6 - - - - - - - 0.0
15/01:00am 34.8 - 9.3 21 14.7 - - - - - - - 0.0
15/12:30am 35.3 - 9.7 21 14.9 - - - - - - - 0.0
15/12:00am 35.0 - 9.4 21 14.8 - - - - - - - 0.0
 
Date/Time
EDT
Temp
°C
App
Temp
°C
Dew
Point
°C
Rel
Hum
%
Delta-T
°C
Wind Press
QNH
hPa
Press
MSL
hPa
Rain since
9am
mm
Dir  Spd
km/h
Gust
km/h
Spd
kts
Gust
kts
14/11:30pm 36.0 - 9.5 20 15.4 - - - - - - - 0.0
14/11:00pm 36.4 - 9.1 19 15.8 - - - - - - - 0.0
14/10:30pm 37.0 - 8.8 18 16.3 - - - - - - - 0.0
14/10:00pm 37.9 - 6.8 15 17.5 - - - - - - - 0.0
14/09:30pm 38.7 - 7.4 15 17.8 - - - - - - - 0.0
14/09:00pm 39.2 - 6.8 14 18.3 - - - - - - - 0.0
14/08:30pm 40.1 - 7.5 14 18.7 - - - - - - - 0.0
14/08:00pm 40.9 - 5.9 12 19.7 - - - - - - - 0.0
14/07:30pm 41.4 - 6.3 12 19.9 - - - - - - - 0.0
14/07:00pm 42.1 - 5.6 11 20.6 - - - - - - - 0.0
14/06:30pm 42.1 - 5.6 11 20.6 - - - - - - - 0.0
14/06:00pm 42.5 - 5.9 11 20.7 - - - - - - - 0.0
14/05:30pm 42.2 - 5.6 11 20.6 - - - - - - - 0.0
14/05:00pm 41.7 - 5.3 11 20.4 - - - - - - - 0.0
14/04:30pm 41.2 - 6.1 12 19.8 - - - - - - - 0.0
14/04:00pm 41.4 - 5.0 11 20.3 - - - - - - - 0.0
14/03:30pm 43.1 - 4.9 10 21.4 - - - - - - - 0.0
14/03:00pm 42.5 - 5.9 11 20.7 - - - - - - - 0.0
14/02:30pm 41.8 - 6.6 12 20.1 - - - - - - - 0.0
14/02:00pm 42.1 - 6.8 12 20.2 - - - - - - - 0.0
14/01:30pm 41.4 - 6.3 12 19.9 - - - - - - - 0.0
14/01:00pm 40.6 - 6.8 13 19.2 - - - - - - - 0.0
14/12:30pm 40.4 - 6.7 13 19.1 - - - - - - - 0.0
14/12:00pm 39.6 - 7.1 14 18.5 - - - - - - - 0.0
14/11:30am 39.1 - 7.7 15 18.0 - - - - - - - 0.0
14/11:00am 38.2 - 8.0 16 17.3 - - - - - - - 0.0
14/10:30am 38.0 - 7.8 16 17.2 - - - - - - - 0.0
14/10:00am 37.6 - 7.5 16 17.1 - - - - - - - 0.0
14/09:30am 37.5 - 7.4 16 17.0 - - - - - - - 0.0
14/09:00am 36.6 - 7.6 17 16.4 - - - - - - - 0.0
14/08:30am 35.7 - 7.7 18 15.8 - - - - - - - 0.0
14/08:00am 34.9 - 7.1 18 15.5 - - - - - - - 0.0
14/07:30am 33.9 - 5.4 17 15.4 - - - - - - - 0.0
14/07:00am 32.7 - 6.1 19 14.4 - - - - - - - 0.0
14/06:30am 32.9 - 7.0 20 14.3 - - - - - - - 0.0
14/06:00am 33.2 - 7.2 20 14.4 - - - - - - - 0.0
14/05:30am 33.1 - 7.9 21 14.1 - - - - - - - 0.0
14/05:00am 33.3 - 8.0 21 14.2 - - - - - - - 0.0
14/04:30am 33.0 - 7.8 21 14.1 - - - - - - - 0.0
14/04:00am 33.8 - 7.7 20 14.6 - - - - - - - 0.0
14/03:30am 34.6 - 7.6 19 15.1 - - - - - - - 0.0
14/03:00am 35.5 - 7.6 18 15.7 - - - - - - - 0.0
14/02:30am 35.5 - 8.3 19 15.5 - - - - - - - 0.0
14/02:00am 35.6 - 8.4 19 15.5 - - - - - - - 0.0
14/01:30am 36.5 - 8.4 18 16.1 - - - - - - - 0.0
14/01:00am 36.7 - 8.5 18 16.2 - - - - - - - 0.0
14/12:30am 37.4 - 8.2 17 16.7 - - - - - - - 0.0
14/12:00am 37.7 - 8.5 17 16.8 - - - - - - - 0.0
 
Date/Time
EDT
Temp
°C
App
Temp
°C
Dew
Point
°C
Rel
Hum
%
Delta-T
°C
Wind Press
QNH
hPa
Press
MSL
hPa
Rain since
9am
mm
Dir  Spd
km/h
Gust
km/h
Spd
kts
Gust
kts
13/11:30pm 38.3 - 8.1 16 17.3 - - - - - - - 0.0
13/11:00pm 39.2 - 7.8 15 18.0 - - - - - - - 0.0
13/10:30pm 39.1 - 8.7 16 17.7 - - - - - - - 0.0
13/10:00pm 38.4 - 8.1 16 17.4 - - - - - - - 0.0
13/09:30pm 38.9 - 7.6 15 17.9 - - - - - - - 0.0
13/09:00pm 38.9 - 7.6 15 17.9 - - - - - - - 0.0
13/08:30pm 39.5 - 8.1 15 18.1 - - - - - - - 0.0
13/08:00pm 39.8 - 7.3 14 18.6 - - - - - - - 0.0
13/07:30pm 40.2 - 7.6 14 18.7 - - - - - - - 0.0
13/07:00pm 40.5 - 7.8 14 18.9 - - - - - - - 0.0
13/06:30pm 41.1 - 6.0 12 19.8 - - - - - - - 0.0
13/06:00pm 41.7 - 6.5 12 20.0 - - - - - - - 0.0
13/05:30pm 41.6 - 6.4 12 20.0 - - - - - - - 0.0
13/05:00pm 42.2 - 5.6 11 20.6 - - - - - - - 0.0
13/04:30pm 43.0 - 6.2 11 21.0 - - - - - - - 0.0
13/04:00pm 43.4 - 6.5 11 21.2 - - - - - - - 0.0
13/03:30pm 42.5 - 5.9 11 20.7 - - - - - - - 0.0
13/03:00pm 42.5 - 5.9 11 20.7 - - - - - - - 0.0
13/02:30pm 43.1 - 7.6 12 20.7 - - - - - - - 0.0
13/02:00pm 42.8 - 7.3 12 20.5 - - - - - - - 0.0
13/01:30pm 43.0 - 7.5 12 20.6 - - - - - - - 0.0
13/01:00pm 41.2 - 7.3 13 19.5 - - - - - - - 0.0
13/12:30pm 41.4 - 8.5 14 19.3 - - - - - - - 0.0
13/12:00pm 41.6 - 8.7 14 19.3 - - - - - - - 0.0
13/11:30am 40.1 - 8.5 15 18.4 - - - - - - - 0.0
13/11:00am 39.6 - 9.1 16 17.9 - - - - - - - 0.0
13/10:30am 39.3 - 8.9 16 17.7 - - - - - - - 0.0

Other Formats:

Comma delimited format used in spreadsheet applications
http://www.bom.gov.au/fwo/IDN60801/IDN60801.94798.axf

JavaScript Object Notation format (JSON) in row-major order
http://www.bom.gov.au/fwo/IDN60801/IDN60801.94798.json